createdAt,value
2023-05-06T00:00:47.091Z,34.32
2023-05-06T00:03:15.203Z,34.29
2023-05-06T00:05:43.530Z,34.28
2023-05-06T00:08:11.000Z,34.34
2023-05-06T00:10:38.658Z,34.42
2023-05-06T00:13:06.278Z,34.49
2023-05-06T00:15:34.911Z,34.34
2023-05-06T00:18:02.907Z,34.33
2023-05-06T00:20:31.470Z,34.37
2023-05-06T00:23:00.526Z,34.33
2023-05-06T00:25:28.216Z,34.43
2023-05-06T00:27:55.775Z,34.47
2023-05-06T00:30:24.048Z,34.41
2023-05-06T00:32:51.687Z,34.45
2023-05-06T00:35:19.469Z,34.62
2023-05-06T00:37:51.051Z,34.77
2023-05-06T00:40:18.530Z,34.78
2023-05-06T00:42:46.185Z,34.69
2023-05-06T00:45:13.686Z,34.73
2023-05-06T00:47:43.162Z,34.72
2023-05-06T00:50:10.651Z,34.82
2023-05-06T00:52:40.336Z,34.80
2023-05-06T00:55:09.041Z,34.81
2023-05-06T00:57:37.413Z,34.70
2023-05-06T01:00:07.217Z,34.75
2023-05-06T01:02:46.349Z,34.84
2023-05-06T01:05:18.189Z,34.94
2023-05-06T01:08:01.715Z,34.96
2023-05-06T01:10:30.890Z,34.84
2023-05-06T01:13:30.417Z,34.90
2023-05-06T01:16:01.338Z,34.86
2023-05-06T01:18:32.610Z,34.92
2023-05-06T01:21:01.783Z,35.04
2023-05-06T01:23:29.272Z,34.89
2023-05-06T01:25:56.932Z,34.93
2023-05-06T01:28:24.820Z,34.88
2023-05-06T01:30:52.549Z,35.07
2023-05-06T01:33:42.644Z,35.02
2023-05-06T01:36:27.310Z,35.16
2023-05-06T01:39:20.126Z,35.25
2023-05-06T01:41:49.848Z,35.28
2023-05-06T01:44:18.776Z,35.27
2023-05-06T01:46:46.783Z,35.28
2023-05-06T01:49:32.209Z,35.40
2023-05-06T01:51:59.936Z,35.20
2023-05-06T01:54:27.496Z,35.30
2023-05-06T01:56:54.973Z,35.32
2023-05-06T01:59:22.788Z,35.41
2023-05-06T02:01:50.331Z,35.42
2023-05-06T02:04:17.872Z,35.33
2023-05-06T02:06:45.399Z,35.34
2023-05-06T02:09:12.927Z,35.40
2023-05-06T02:11:40.841Z,35.49
2023-05-06T02:14:08.462Z,35.36
2023-05-06T02:16:36.104Z,35.38
2023-05-06T02:19:03.944Z,35.43
2023-05-06T02:21:32.120Z,35.53
2023-05-06T02:23:59.696Z,35.53
2023-05-06T02:26:27.473Z,35.62
2023-05-06T02:28:54.910Z,35.66
2023-05-06T02:31:22.600Z,35.67
2023-05-06T02:33:50.439Z,35.64
2023-05-06T02:36:17.997Z,35.66
2023-05-06T02:38:45.629Z,35.82
2023-05-06T02:41:13.379Z,35.81
2023-05-06T02:43:40.825Z,35.72
2023-05-06T02:46:08.331Z,35.70
2023-05-06T02:48:36.195Z,35.64
2023-05-06T02:51:05.353Z,35.71
2023-05-06T02:53:33.196Z,35.78
2023-05-06T02:56:00.640Z,35.62
2023-05-06T02:58:28.158Z,35.69
2023-05-06T03:00:55.896Z,35.76
2023-05-06T03:03:23.453Z,35.78
2023-05-06T03:05:51.480Z,35.87
2023-05-06T03:08:19.297Z,35.74
2023-05-06T03:10:46.852Z,35.72
2023-05-06T03:13:14.482Z,35.84
2023-05-06T03:15:42.449Z,35.72
2023-05-06T03:18:10.257Z,35.96
2023-05-06T03:20:38.027Z,35.80
2023-05-06T03:23:05.620Z,35.88
2023-05-06T03:25:33.136Z,36.01
2023-05-06T03:28:00.811Z,35.97
2023-05-06T03:30:28.414Z,36.00
2023-05-06T03:32:57.029Z,35.97
2023-05-06T03:35:24.756Z,35.99
2023-05-06T03:37:52.424Z,36.04
2023-05-06T03:40:20.642Z,36.06
2023-05-06T03:42:48.638Z,36.07
2023-05-06T03:45:16.186Z,35.94
2023-05-06T03:47:44.135Z,35.99
2023-05-06T03:50:11.639Z,36.21
2023-05-06T03:52:39.235Z,36.14
2023-05-06T03:55:07.409Z,36.16
2023-05-06T03:57:35.062Z,36.18
2023-05-06T04:00:02.571Z,36.15
2023-05-06T04:02:30.320Z,36.14
2023-05-06T04:04:57.905Z,36.18
2023-05-06T04:07:25.585Z,36.22
2023-05-06T04:09:53.077Z,36.24
2023-05-06T04:12:20.711Z,36.32
2023-05-06T04:14:48.363Z,36.41
2023-05-06T04:17:15.832Z,36.48
2023-05-06T04:19:43.425Z,36.42
2023-05-06T04:22:10.829Z,36.48
2023-05-06T04:24:38.306Z,36.46
2023-05-06T04:27:06.395Z,36.54
2023-05-06T04:29:33.859Z,36.57
2023-05-06T04:32:02.831Z,36.60
2023-05-06T04:34:31.356Z,36.51
2023-05-06T04:36:59.156Z,36.40
2023-05-06T04:39:26.692Z,36.32
2023-05-06T04:41:54.260Z,36.35
2023-05-06T04:44:22.375Z,36.38
2023-05-06T04:46:49.879Z,36.32
2023-05-06T04:49:17.312Z,36.43
2023-05-06T04:51:44.811Z,36.51
2023-05-06T04:54:12.255Z,36.44
2023-05-06T04:56:39.736Z,36.58
2023-05-06T04:59:07.760Z,36.60
2023-05-06T05:01:35.330Z,36.68
2023-05-06T05:04:03.098Z,36.56
2023-05-06T05:06:31.952Z,36.52
2023-05-06T05:08:59.843Z,36.72
2023-05-06T05:11:29.401Z,36.60
2023-05-06T05:13:58.088Z,36.67
2023-05-06T05:16:27.144Z,36.72
2023-05-06T05:18:54.717Z,36.74
2023-05-06T05:21:22.247Z,36.78
2023-05-06T05:23:49.874Z,36.77
2023-05-06T05:26:17.416Z,36.88
2023-05-06T05:28:45.085Z,36.92
2023-05-06T05:31:12.752Z,36.91
2023-05-06T05:33:40.296Z,36.80
2023-05-06T05:36:08.290Z,36.80
2023-05-06T05:38:36.095Z,36.82
2023-05-06T05:41:04.308Z,36.98
2023-05-06T05:43:31.748Z,37.02
2023-05-06T05:45:59.257Z,37.04
2023-05-06T05:48:26.724Z,36.90
2023-05-06T05:50:54.384Z,37.12
2023-05-06T05:53:21.927Z,37.08
2023-05-06T05:55:49.573Z,37.03
2023-05-06T05:58:17.150Z,37.04
2023-05-06T06:00:44.772Z,37.01
2023-05-06T06:03:12.515Z,37.20
2023-05-06T06:05:41.241Z,37.19
2023-05-06T06:08:08.869Z,37.11
2023-05-06T06:10:36.476Z,37.14
2023-05-06T06:13:04.025Z,37.26
2023-05-06T06:15:31.675Z,37.33
2023-05-06T06:17:59.574Z,37.29
2023-05-06T06:20:27.487Z,37.31
2023-05-06T06:22:55.302Z,37.39
2023-05-06T06:25:22.881Z,37.51
2023-05-06T06:27:50.437Z,37.45
2023-05-06T06:30:18.024Z,37.54
2023-05-06T06:32:51.425Z,37.57
2023-05-06T06:35:20.248Z,37.58
2023-05-06T06:37:47.813Z,37.64
2023-05-06T06:40:16.915Z,37.56
2023-05-06T06:42:44.627Z,37.84
2023-05-06T06:45:14.044Z,37.79
2023-05-06T06:47:41.704Z,37.60
2023-05-06T06:50:10.568Z,37.70
2023-05-06T06:52:38.144Z,37.78
2023-05-06T06:55:06.389Z,37.68
2023-05-06T06:57:33.998Z,37.55
2023-05-06T07:00:01.628Z,37.65
2023-05-06T07:02:29.528Z,37.79
2023-05-06T07:04:57.045Z,38.07
2023-05-06T07:07:24.527Z,37.92
2023-05-06T07:09:51.978Z,38.07
2023-05-06T07:12:19.694Z,37.80
2023-05-06T07:14:47.189Z,37.77
2023-05-06T07:17:14.660Z,37.95
2023-05-06T07:19:42.170Z,37.81
2023-05-06T07:22:09.758Z,37.68
2023-05-06T07:24:37.240Z,37.77
2023-05-06T07:27:04.811Z,37.74
2023-05-06T07:29:32.594Z,37.83
2023-05-06T07:32:00.616Z,37.77
2023-05-06T07:34:28.100Z,37.72
2023-05-06T07:36:56.036Z,37.73
2023-05-06T07:39:23.506Z,37.67
2023-05-06T07:41:51.573Z,37.53
2023-05-06T07:44:19.272Z,37.52
2023-05-06T07:46:46.971Z,37.57
2023-05-06T07:49:14.584Z,37.43
2023-05-06T07:51:42.789Z,37.56
2023-05-06T07:54:11.183Z,37.57
2023-05-06T07:56:38.957Z,37.61
2023-05-06T07:59:06.610Z,37.66
2023-05-06T08:01:34.077Z,37.56
2023-05-06T08:04:01.637Z,37.46
2023-05-06T08:06:29.348Z,37.50
2023-05-06T08:08:56.900Z,37.28
2023-05-06T08:11:24.502Z,37.33
2023-05-06T08:13:51.936Z,37.44
2023-05-06T08:16:19.479Z,37.39
2023-05-06T08:18:46.968Z,37.36
2023-05-06T08:21:14.443Z,37.33
2023-05-06T08:23:42.043Z,37.55
2023-05-06T08:26:09.664Z,37.45
2023-05-06T08:28:37.351Z,37.43
2023-05-06T08:31:04.920Z,37.47
2023-05-06T08:33:32.699Z,37.63
2023-05-06T08:36:00.477Z,37.64
2023-05-06T08:38:27.986Z,37.60
2023-05-06T08:41:03.205Z,37.65
2023-05-06T08:43:35.952Z,37.55
2023-05-06T08:46:03.721Z,37.44
2023-05-06T08:48:31.412Z,37.36
2023-05-06T08:51:02.089Z,37.51
2023-05-06T08:53:32.220Z,37.33
2023-05-06T08:56:04.104Z,37.36
2023-05-06T08:58:40.315Z,37.35
2023-05-06T09:01:09.622Z,37.36
2023-05-06T09:03:37.658Z,37.16
2023-05-06T09:06:05.334Z,37.34
2023-05-06T09:08:32.996Z,37.41
2023-05-06T09:11:00.580Z,37.09
2023-05-06T09:13:28.210Z,37.09
2023-05-06T09:15:55.767Z,37.21
2023-05-06T09:18:23.704Z,37.16
2023-05-06T09:20:51.427Z,37.19
2023-05-06T09:23:19.603Z,37.41
2023-05-06T09:25:47.627Z,37.38
2023-05-06T09:28:15.228Z,37.24
2023-05-06T09:30:45.010Z,37.01
2023-05-06T09:33:12.712Z,37.11
2023-05-06T09:35:42.835Z,37.10
2023-05-06T09:38:10.507Z,36.82
2023-05-06T09:40:39.098Z,37.00
2023-05-06T09:43:07.695Z,36.89
2023-05-06T09:45:36.141Z,36.74
2023-05-06T09:48:04.137Z,36.92
2023-05-06T09:50:32.801Z,36.95
2023-05-06T09:53:00.901Z,36.82
2023-05-06T09:55:29.846Z,36.91
2023-05-06T09:58:00.778Z,36.89
2023-05-06T10:00:30.776Z,36.64
2023-05-06T10:02:58.934Z,36.64
2023-05-06T10:05:28.997Z,36.62
2023-05-06T10:07:57.213Z,36.79
2023-05-06T10:10:29.081Z,36.83
2023-05-06T10:12:56.710Z,36.64
2023-05-06T10:15:26.196Z,36.76
2023-05-06T10:17:55.534Z,36.76
2023-05-06T10:20:25.414Z,36.62
2023-05-06T10:23:09.078Z,36.28
2023-05-06T10:25:46.836Z,36.06
2023-05-06T10:28:30.607Z,35.90
2023-05-06T10:31:03.509Z,36.05
2023-05-06T10:33:31.536Z,35.92
2023-05-06T10:36:32.416Z,36.05
2023-05-06T10:39:03.335Z,36.03
2023-05-06T10:41:32.041Z,36.05
2023-05-06T10:44:02.182Z,36.14
2023-05-06T10:46:30.586Z,35.91
2023-05-06T10:49:19.999Z,35.96
2023-05-06T10:51:48.464Z,35.90
2023-05-06T10:54:19.220Z,36.21
2023-05-06T10:56:47.997Z,36.19
2023-05-06T10:59:25.758Z,36.25
2023-05-06T11:01:57.247Z,36.32
2023-05-06T11:04:24.798Z,36.35
2023-05-06T11:06:55.415Z,36.54
2023-05-06T11:09:26.984Z,36.41
2023-05-06T11:12:02.634Z,36.48
2023-05-06T11:14:39.262Z,36.31
2023-05-06T11:17:10.029Z,36.33
2023-05-06T11:19:41.334Z,36.45
2023-05-06T11:22:08.805Z,36.57
2023-05-06T11:24:41.400Z,36.49
2023-05-06T11:27:10.462Z,36.41
2023-05-06T11:29:38.033Z,36.62
2023-05-06T11:32:19.330Z,36.60
2023-05-06T11:34:46.941Z,36.64
2023-05-06T11:37:25.960Z,36.70
2023-05-06T11:39:53.610Z,36.80
2023-05-06T11:42:26.240Z,36.94
2023-05-06T11:44:55.461Z,37.24
2023-05-06T11:47:24.269Z,37.28
2023-05-06T11:49:55.877Z,37.43
2023-05-06T11:52:23.499Z,37.70
2023-05-06T11:54:54.110Z,37.73
2023-05-06T11:57:21.764Z,38.20
2023-05-06T11:59:55.272Z,38.35
2023-05-06T12:02:22.917Z,38.65
2023-05-06T12:04:51.280Z,38.78
2023-05-06T12:07:18.937Z,38.89
2023-05-06T12:09:48.934Z,39.16
2023-05-06T12:12:23.982Z,39.38
2023-05-06T12:14:53.191Z,39.60
2023-05-06T12:17:21.348Z,39.67
2023-05-06T12:19:49.188Z,39.80
2023-05-06T12:22:24.660Z,39.89
2023-05-06T12:24:52.619Z,40.17
2023-05-06T12:27:36.304Z,40.30
2023-05-06T12:30:09.091Z,40.43
2023-05-06T12:32:57.419Z,40.56
2023-05-06T12:35:30.469Z,40.67
2023-05-06T12:38:09.366Z,41.05
2023-05-06T12:40:37.610Z,41.19
2023-05-06T12:43:05.226Z,41.19
2023-05-06T12:45:32.983Z,41.32
2023-05-06T12:48:03.830Z,41.46
2023-05-06T12:50:41.550Z,41.59
2023-05-06T12:53:15.856Z,41.65
2023-05-06T12:55:45.309Z,41.68
2023-05-06T12:58:20.712Z,41.90
2023-05-06T13:00:48.277Z,42.04
2023-05-06T13:03:15.947Z,42.13
2023-05-06T13:05:48.175Z,42.14
2023-05-06T13:08:16.053Z,41.96
2023-05-06T13:10:44.562Z,41.92
2023-05-06T13:13:12.357Z,42.18
2023-05-06T13:15:41.416Z,42.04
2023-05-06T13:18:11.583Z,42.28
2023-05-06T13:20:39.415Z,42.31
2023-05-06T13:23:07.246Z,42.37
2023-05-06T13:25:44.610Z,42.61
2023-05-06T13:28:19.725Z,42.55
2023-05-06T13:30:47.755Z,42.67
2023-05-06T13:33:15.398Z,42.59
2023-05-06T13:35:46.703Z,42.46
2023-05-06T13:38:14.767Z,42.51
2023-05-06T13:40:48.952Z,42.64
2023-05-06T13:43:18.433Z,42.67
2023-05-06T13:45:53.054Z,42.76
2023-05-06T13:48:20.835Z,42.55
2023-05-06T13:50:49.373Z,42.49
2023-05-06T13:53:17.267Z,42.48
2023-05-06T13:55:46.825Z,42.19
2023-05-06T13:58:14.609Z,42.15
2023-05-06T14:00:42.673Z,42.17
2023-05-06T14:03:10.369Z,42.13
2023-05-06T14:05:38.133Z,42.13
2023-05-06T14:08:06.056Z,41.94
2023-05-06T14:10:33.609Z,41.91
2023-05-06T14:13:01.131Z,41.79
2023-05-06T14:15:28.713Z,41.65
2023-05-06T14:17:56.323Z,41.41
2023-05-06T14:20:24.306Z,41.50
2023-05-06T14:22:52.002Z,41.58
2023-05-06T14:25:19.892Z,41.74
2023-05-06T14:27:47.482Z,41.61
2023-05-06T14:30:15.103Z,41.56
2023-05-06T14:32:43.694Z,41.50
2023-05-06T14:35:11.596Z,41.64
2023-05-06T14:37:39.426Z,41.23
2023-05-06T14:40:11.938Z,41.36
2023-05-06T14:42:39.456Z,41.16
2023-05-06T14:45:08.487Z,41.30
2023-05-06T14:47:36.620Z,41.26
2023-05-06T14:50:04.511Z,41.24
2023-05-06T14:52:31.950Z,41.29
2023-05-06T14:54:59.610Z,41.26
2023-05-06T14:57:27.294Z,41.26
2023-05-06T14:59:54.827Z,41.22
2023-05-06T15:02:22.443Z,41.25
2023-05-06T15:04:49.973Z,41.23
2023-05-06T15:07:17.794Z,41.20
2023-05-06T15:09:45.609Z,41.18
2023-05-06T15:12:13.723Z,41.30
2023-05-06T15:14:41.277Z,41.27
2023-05-06T15:17:08.965Z,41.24
2023-05-06T15:19:36.588Z,41.19
2023-05-06T15:22:04.350Z,41.18
2023-05-06T15:24:32.108Z,41.21
2023-05-06T15:26:59.755Z,41.20
2023-05-06T15:29:27.249Z,41.12
2023-05-06T15:31:54.961Z,40.99
2023-05-06T15:34:22.615Z,41.02
2023-05-06T15:36:52.806Z,41.19
2023-05-06T15:39:21.040Z,41.09
2023-05-06T15:41:48.663Z,41.10
2023-05-06T15:44:16.548Z,41.08
2023-05-06T15:46:45.080Z,40.92
2023-05-06T15:49:45.578Z,41.17
2023-05-06T15:52:01.428Z,40.92
2023-05-06T15:54:29.405Z,40.86
2023-05-06T15:56:58.358Z,41.13
2023-05-06T15:59:26.978Z,40.87
2023-05-06T16:04:25.549Z,40.72
2023-05-06T16:06:53.709Z,40.86
2023-05-06T16:09:21.671Z,40.83
2023-05-06T16:11:49.324Z,40.73
2023-05-06T16:14:16.947Z,40.66
2023-05-06T16:16:44.558Z,40.85
2023-05-06T16:19:12.196Z,40.75
2023-05-06T16:21:39.678Z,40.68
2023-05-06T16:24:07.330Z,40.63
2023-05-06T16:26:35.853Z,40.61
2023-05-06T16:29:03.455Z,40.69
2023-05-06T16:31:32.500Z,40.79
2023-05-06T16:34:00.158Z,40.63
2023-05-06T16:36:28.715Z,40.75
2023-05-06T16:38:56.319Z,40.66
2023-05-06T16:41:24.407Z,40.61
2023-05-06T16:43:51.905Z,40.48
2023-05-06T16:46:20.499Z,40.59
2023-05-06T16:48:50.232Z,40.66
2023-05-06T16:51:17.873Z,40.66
2023-05-06T16:53:45.869Z,40.50
2023-05-06T16:56:13.530Z,40.62
2023-05-06T16:58:42.855Z,40.63
2023-05-06T17:01:11.916Z,40.53
2023-05-06T17:03:40.575Z,40.55
2023-05-06T17:06:09.212Z,40.54
2023-05-06T17:08:37.534Z,40.46
2023-05-06T17:11:06.734Z,40.47
2023-05-06T17:13:34.744Z,40.58
2023-05-06T17:16:02.293Z,40.52
2023-05-06T17:18:29.887Z,40.35
2023-05-06T17:20:57.685Z,40.40
2023-05-06T17:23:25.442Z,40.29
2023-05-06T17:25:55.897Z,40.29
2023-05-06T17:28:23.435Z,40.31
2023-05-06T17:30:51.398Z,40.29
2023-05-06T17:33:18.996Z,40.24
2023-05-06T17:35:46.573Z,40.46
2023-05-06T17:38:14.650Z,40.46
2023-05-06T17:40:43.730Z,40.41
2023-05-06T17:43:11.286Z,40.50
2023-05-06T17:45:41.169Z,40.51
2023-05-06T17:48:08.990Z,40.42
2023-05-06T17:50:36.855Z,40.38
2023-05-06T17:53:04.348Z,40.46
2023-05-06T17:55:31.925Z,40.59
2023-05-06T17:57:59.572Z,40.60
2023-05-06T18:00:27.105Z,40.69
2023-05-06T18:02:55.571Z,40.60
2023-05-06T18:05:25.628Z,40.56
2023-05-06T18:07:53.223Z,40.69
2023-05-06T18:10:20.915Z,40.61
2023-05-06T18:12:48.567Z,40.76
2023-05-06T18:15:16.012Z,40.82
2023-05-06T18:17:43.714Z,40.81
2023-05-06T18:20:12.337Z,40.90
2023-05-06T18:22:40.044Z,41.23
2023-05-06T18:25:08.762Z,41.49
2023-05-06T18:27:37.160Z,41.58
2023-05-06T18:30:06.047Z,41.45
2023-05-06T18:32:34.711Z,41.57
2023-05-06T18:35:02.350Z,41.67
2023-05-06T18:37:30.037Z,41.71
2023-05-06T18:39:57.532Z,41.80
2023-05-06T18:42:27.326Z,41.68
2023-05-06T18:44:56.313Z,41.48
2023-05-06T18:47:25.837Z,41.53
2023-05-06T18:49:57.536Z,41.55
2023-05-06T18:52:25.115Z,41.56
2023-05-06T18:54:52.681Z,41.49
2023-05-06T18:57:20.200Z,41.66
2023-05-06T18:59:47.737Z,41.84
2023-05-06T19:02:15.483Z,41.95
2023-05-06T19:04:43.480Z,42.13
2023-05-06T19:07:11.161Z,42.43
2023-05-06T19:09:38.676Z,42.61
2023-05-06T19:12:06.291Z,42.73
2023-05-06T19:14:34.683Z,42.91
2023-05-06T19:17:03.555Z,43.17
2023-05-06T19:19:31.307Z,43.06
2023-05-06T19:22:00.029Z,43.09
2023-05-06T19:24:29.472Z,43.17
2023-05-06T19:26:57.016Z,43.26
2023-05-06T19:29:24.800Z,43.33
2023-05-06T19:31:52.316Z,43.34
2023-05-06T19:34:20.041Z,43.45
2023-05-06T19:36:47.837Z,43.62
2023-05-06T19:39:16.323Z,43.50
2023-05-06T19:41:43.845Z,43.51
2023-05-06T19:44:11.530Z,43.53
2023-05-06T19:46:39.483Z,43.32
2023-05-06T19:49:07.280Z,43.36
2023-05-06T19:51:34.735Z,43.34
2023-05-06T19:54:02.224Z,43.54
2023-05-06T19:56:29.772Z,43.48
2023-05-06T19:58:57.270Z,43.66
2023-05-06T20:01:27.020Z,43.72
2023-05-06T20:03:55.271Z,43.79
2023-05-06T20:06:23.084Z,43.78
2023-05-06T20:08:50.582Z,43.76
2023-05-06T20:11:18.068Z,44.20
2023-05-06T20:13:45.721Z,44.35
2023-05-06T20:16:13.342Z,44.72
2023-05-06T20:18:40.852Z,44.84
2023-05-06T20:21:08.494Z,45.06
2023-05-06T20:23:36.080Z,45.19
2023-05-06T20:26:03.580Z,45.22
2023-05-06T20:28:31.973Z,45.53
2023-05-06T20:30:59.712Z,45.54
2023-05-06T20:33:27.558Z,45.68
2023-05-06T20:35:55.326Z,45.75
2023-05-06T20:38:22.943Z,45.74
2023-05-06T20:40:50.517Z,45.81
2023-05-06T20:43:18.115Z,45.74
2023-05-06T20:45:45.961Z,45.95
2023-05-06T20:48:15.135Z,46.00
2023-05-06T20:50:43.172Z,46.07
2023-05-06T20:53:10.756Z,46.18
2023-05-06T20:55:38.243Z,46.31
2023-05-06T20:58:06.084Z,46.26
2023-05-06T21:00:33.650Z,46.27
2023-05-06T21:03:01.413Z,46.46
2023-05-06T21:05:29.280Z,46.69
2023-05-06T21:07:56.865Z,46.61
2023-05-06T21:10:24.349Z,46.71
2023-05-06T21:12:52.077Z,46.97
2023-05-06T21:15:19.692Z,47.05
2023-05-06T21:17:48.857Z,47.09
2023-05-06T21:20:16.452Z,47.13
2023-05-06T21:22:44.001Z,47.27
2023-05-06T21:25:13.407Z,47.46
2023-05-06T21:27:41.213Z,47.47
2023-05-06T21:30:09.397Z,47.50
2023-05-06T21:32:37.090Z,47.58
2023-05-06T21:35:05.275Z,47.63
2023-05-06T21:37:32.844Z,47.58
2023-05-06T21:40:02.943Z,47.73
2023-05-06T21:42:30.986Z,47.77
2023-05-06T21:44:58.538Z,47.80
2023-05-06T21:47:26.290Z,47.82
2023-05-06T21:49:53.851Z,47.85
2023-05-06T21:52:21.479Z,47.95
2023-05-06T21:54:49.070Z,47.93
2023-05-06T21:57:16.707Z,47.78
2023-05-06T21:59:44.291Z,47.86
2023-05-06T22:02:11.801Z,47.72
2023-05-06T22:04:39.486Z,47.82
2023-05-06T22:07:07.209Z,47.87
2023-05-06T22:09:34.759Z,47.82
2023-05-06T22:12:06.509Z,47.80
2023-05-06T22:14:41.015Z,47.97
2023-05-06T22:17:10.599Z,47.89
2023-05-06T22:19:38.989Z,47.73
2023-05-06T22:22:07.065Z,47.76
2023-05-06T22:24:34.669Z,47.72
2023-05-06T22:27:03.469Z,47.78
2023-05-06T22:29:35.064Z,47.69
2023-05-06T22:32:03.518Z,47.63
2023-05-06T22:34:31.368Z,47.66
2023-05-06T22:37:00.503Z,47.79
2023-05-06T22:39:28.759Z,47.96
2023-05-06T22:41:57.248Z,47.99
2023-05-06T22:44:24.792Z,48.26
2023-05-06T22:46:52.343Z,48.24
2023-05-06T22:49:20.063Z,48.32
2023-05-06T22:51:47.646Z,48.38
2023-05-06T22:54:15.191Z,48.49
2023-05-06T22:56:42.701Z,48.44
2023-05-06T22:59:10.806Z,48.42
2023-05-06T23:01:38.375Z,48.55
2023-05-06T23:04:06.198Z,48.43
2023-05-06T23:06:33.790Z,48.51
2023-05-06T23:09:01.325Z,48.59
2023-05-06T23:11:28.846Z,48.58
2023-05-06T23:13:56.341Z,48.74
2023-05-06T23:16:23.901Z,48.96
2023-05-06T23:18:51.511Z,49.12
2023-05-06T23:21:19.013Z,49.24
2023-05-06T23:23:46.773Z,49.25
2023-05-06T23:26:14.384Z,49.10
2023-05-06T23:28:44.282Z,49.33
2023-05-06T23:31:12.129Z,49.37
2023-05-06T23:33:40.097Z,49.34
2023-05-06T23:36:07.990Z,49.46
2023-05-06T23:38:35.564Z,49.58
2023-05-06T23:41:03.693Z,49.50
2023-05-06T23:43:31.207Z,49.60
2023-05-06T23:45:58.745Z,49.63
2023-05-06T23:48:26.373Z,49.69
2023-05-06T23:50:54.530Z,49.92
2023-05-06T23:53:22.264Z,50.03
2023-05-06T23:55:50.035Z,49.97
2023-05-06T23:58:17.574Z,49.97
